Flight TGW904
Submitted By: Maurizio Fadda Date Submitted: 30/06/2018
Departure Airport: Singapore Changi (WSSS) Arrival Airport: Macau International Airport (VMMC)
Aircraft: A320-200 (9V-TAQ) Flight Time: 03.28
Status: AcceptedRoute: VMR MERAS DOLOX DUDIS DAGAG SUDUN DAMVO DOXAR NITOM DAMEL 34BC DONDA DOSUT DULOP DUMOL
Additional Log Information

Show/Hide Log

Comments
Commenter Comment
Maurizio Fadda Regular takeoff runway 20C WSSS,gate departure E6 Terminal 2,taxy B1-EP-E1,Sid VMR8B,regular landing runway ILS34 VMMC,Star Terminal Transition Route J103 to Chali Inters.Exit runway G,taxy H,gate arrival A8.Weather:WSSS 300530Z 20006KT 180V280 9999 FEW018 BKN170 29/23 Q1010 NOSIG..........VMMC 300900Z 22014KT 9999 FEW022 31/26 Q1002 NOSIG.
Flight Map